Country
Station

 

Weather  for  Semnan  -  Iran    Iran

  
7 °C (45 °F)
    
 
 

Current METAR for Semnan is :

OIIS 251100Z 18002KT 9999 FEW035 SCT090 07/M01 Q1024

 

This is a report for Semnan - Iran.
 
The report was made 712 hours and 1 minutes ago, at 11:00 UTC .
The wind was blowing at a speed of 1.0 meters per second (2.3 miles per hour) from south (180°).
 
The temperature was 7 °C (45 °F), with a dew-point at -1 °C (30 °F).
The atmospheric pressure was 1024 hPa (30.24 inHg).
The relative humidity was 56.7%.
 
There were a few clouds at a height of 1067 meters (3500 feet) and scattered clouds at a height of 2743 meters (9000 feet).
 
The overall visibility was greater than 10 kilometers (6.2 miles).
 

 
 
 
 

Country :   A   B   C   D   E   F   G   H   I   J   K   L   M   N   O   P   Q   R   S   T   U   V   W   Y   Z

 

Site Info  |  Disclaimer  |  Credits  |  Privacy
Contact us  |  Add to favorites
© 2013-2020 METARs - All rights reserved